ABG9001 UUEE-USSS
Flight info
| Callsign | ABG9001 |
|---|---|
| Flight time | N/A |
| Altitude | 35000 |
| Route | KOGOM L94 EKPIR M864 INKEB L94 NAMER T765 GEMKI L94 LOMBI |
| Aircraft | B738/M-RVSM/C |
Departure
| Time | 2026-05-01 15:04 |
|---|---|
| Airport | Sheremetyevo International Airport (UUEE) |
Arrival
| Time | N/A |
|---|---|
| Airport | Koltsovo Airport (USSS) |
| Time | Latitude | Longitude | Altitude | Speed | Heading |
|---|---|---|---|---|---|
| 2026-05-01 14:33 | 55.96568 | 37.40364 | 638 ft | 0 kts | 107° |
| 2026-05-01 14:53 | 55.96569 | 37.40350 | 638 ft | 2 kts | 80° |
| 2026-05-01 14:53 | 55.96566 | 37.40326 | 638 ft | 1 kts | 90° |
| 2026-05-01 14:54 | 55.96570 | 37.40301 | 638 ft | 2 kts | 110° |
| 2026-05-01 14:54 | 55.96574 | 37.40275 | 638 ft | 2 kts | 103° |
| 2026-05-01 14:54 | 55.96578 | 37.40250 | 638 ft | 1 kts | 107° |
| 2026-05-01 14:54 | 55.96578 | 37.40228 | 638 ft | 2 kts | 75° |
| 2026-05-01 14:55 | 55.96571 | 37.40203 | 638 ft | 2 kts | 40° |
| 2026-05-01 14:55 | 55.96557 | 37.40191 | 638 ft | 2 kts | 6° |
| 2026-05-01 14:55 | 55.96542 | 37.40195 | 638 ft | 2 kts | 338° |
| 2026-05-01 14:55 | 55.96528 | 37.40203 | 638 ft | 2 kts | 347° |
| 2026-05-01 14:56 | 55.96518 | 37.40207 | 638 ft | 0 kts | 344° |
| 2026-05-01 14:56 | 55.96517 | 37.40208 | 638 ft | 0 kts | 344° |
| 2026-05-01 14:57 | 55.96545 | 37.40194 | 638 ft | 7 kts | 344° |
| 2026-05-01 14:58 | 55.96617 | 37.40162 | 638 ft | 13 kts | 346° |
| 2026-05-01 14:58 | 55.96713 | 37.40126 | 638 ft | 10 kts | 9° |
| 2026-05-01 14:58 | 55.96744 | 37.40247 | 638 ft | 14 kts | 76° |
| 2026-05-01 14:58 | 55.96777 | 37.40470 | 638 ft | 22 kts | 75° |
| 2026-05-01 14:59 | 55.96826 | 37.40774 | 638 ft | 27 kts | 73° |
| 2026-05-01 14:59 | 55.96880 | 37.41149 | 638 ft | 35 kts | 74° |
| 2026-05-01 14:59 | 55.96923 | 37.41448 | 638 ft | 21 kts | 75° |
| 2026-05-01 14:59 | 55.96967 | 37.41729 | 638 ft | 25 kts | 75° |
| 2026-05-01 15:00 | 55.97063 | 37.42375 | 638 ft | 19 kts | 75° |
| 2026-05-01 15:00 | 55.97100 | 37.42627 | 638 ft | 22 kts | 75° |
| 2026-05-01 15:00 | 55.97145 | 37.42918 | 638 ft | 26 kts | 73° |
| 2026-05-01 15:01 | 55.97196 | 37.43224 | 638 ft | 19 kts | 75° |
| 2026-05-01 15:01 | 55.97234 | 37.43482 | 638 ft | 22 kts | 79° |
| 2026-05-01 15:01 | 55.97272 | 37.43776 | 638 ft | 24 kts | 75° |
| 2026-05-01 15:01 | 55.97311 | 37.44039 | 638 ft | 21 kts | 75° |
| 2026-05-01 15:02 | 55.97345 | 37.44269 | 638 ft | 11 kts | 75° |
| 2026-05-01 15:02 | 55.97366 | 37.44358 | 638 ft | 12 kts | 51° |
| 2026-05-01 15:02 | 55.97480 | 37.44408 | 638 ft | 12 kts | 343° |
| 2026-05-01 15:02 | 55.97558 | 37.44334 | 638 ft | 13 kts | 290° |
| 2026-05-01 15:03 | 55.97547 | 37.44199 | 638 ft | 2 kts | 254° |
| 2026-05-01 15:03 | 55.97546 | 37.44194 | 638 ft | 0 kts | 254° |
| 2026-05-01 15:03 | 55.97546 | 37.44193 | 638 ft | 1 kts | 254° |
| 2026-05-01 15:03 | 55.97527 | 37.44065 | 638 ft | 35 kts | 255° |
| 2026-05-01 15:04 | 55.97400 | 37.43216 | 638 ft | 106 kts | 255° |
| 2026-05-01 15:04 | 55.97155 | 37.41577 | 639 ft | 163 kts | 255° |
| 2026-05-01 15:04 | 55.96843 | 37.39451 | 1012 ft | 180 kts | 256° |
| 2026-05-01 15:04 | 55.96527 | 37.37360 | 1711 ft | 173 kts | 250° |
| 2026-05-01 15:05 | 55.95878 | 37.35529 | 1976 ft | 183 kts | 226° |
| 2026-05-01 15:05 | 55.94985 | 37.33771 | 2128 ft | 199 kts | 234° |
| 2026-05-01 15:05 | 55.94182 | 37.31557 | 2409 ft | 224 kts | 240° |
| 2026-05-01 15:05 | 55.93365 | 37.29143 | 3000 ft | 240 kts | 238° |
| 2026-05-01 15:06 | 55.92427 | 37.26572 | 3781 ft | 247 kts | 236° |
| 2026-05-01 15:06 | 55.91488 | 37.24229 | 4908 ft | 237 kts | 235° |
| 2026-05-01 15:06 | 55.90501 | 37.21830 | 5674 ft | 243 kts | 233° |
| 2026-05-01 15:06 | 55.89267 | 37.19874 | 6553 ft | 244 kts | 208° |
| 2026-05-01 15:07 | 55.87593 | 37.19234 | 7092 ft | 262 kts | 177° |
| 2026-05-01 15:07 | 55.85814 | 37.20194 | 7350 ft | 275 kts | 149° |
| 2026-05-01 15:07 | 55.84373 | 37.22475 | 7208 ft | 281 kts | 126° |
| 2026-05-01 15:07 | 55.83638 | 37.25832 | 7342 ft | 301 kts | 90° |
| 2026-05-01 15:08 | 55.84058 | 37.29278 | 8465 ft | 286 kts | 60° |
| 2026-05-01 15:08 | 55.85077 | 37.32303 | 9288 ft | 286 kts | 51° |
| 2026-05-01 15:08 | 55.86269 | 37.35028 | 10238 ft | 281 kts | 48° |
| 2026-05-01 15:08 | 55.87543 | 37.37822 | 10583 ft | 300 kts | 48° |
| 2026-05-01 15:09 | 55.88911 | 37.40829 | 10777 ft | 323 kts | 48° |
| 2026-05-01 15:09 | 55.90360 | 37.44011 | 11163 ft | 338 kts | 48° |
| 2026-05-01 15:09 | 55.91806 | 37.47300 | 11853 ft | 343 kts | 53° |
| 2026-05-01 15:09 | 55.92916 | 37.51087 | 12615 ft | 348 kts | 66° |
| 2026-05-01 15:10 | 55.93427 | 37.55353 | 13295 ft | 357 kts | 81° |
| 2026-05-01 15:10 | 55.93756 | 37.64185 | 14651 ft | 361 kts | 81° |
| 2026-05-01 15:10 | 55.93940 | 37.68618 | 15370 ft | 362 kts | 82° |
| 2026-05-01 15:11 | 55.94107 | 37.73122 | 15952 ft | 366 kts | 82° |
| 2026-05-01 15:11 | 55.94410 | 37.82184 | 17208 ft | 369 kts | 81° |
| 2026-05-01 15:11 | 55.94564 | 37.86733 | 17767 ft | 371 kts | 81° |
| 2026-05-01 15:12 | 55.94723 | 37.91363 | 18340 ft | 373 kts | 81° |
| 2026-05-01 15:12 | 55.95031 | 38.00614 | 19395 ft | 378 kts | 81° |
| 2026-05-01 15:12 | 55.95180 | 38.05311 | 19907 ft | 380 kts | 81° |
| 2026-05-01 15:13 | 55.95627 | 38.19559 | 21360 ft | 386 kts | 81° |
| 2026-05-01 15:14 | 55.95916 | 38.29112 | 22262 ft | 389 kts | 81° |
| 2026-05-01 15:14 | 55.96059 | 38.33951 | 22667 ft | 392 kts | 81° |
| 2026-05-01 15:14 | 55.96246 | 38.40402 | 23238 ft | 393 kts | 80° |
| 2026-05-01 15:16 | 55.97453 | 38.84925 | 26459 ft | 408 kts | 80° |
| 2026-05-01 15:17 | 55.97718 | 38.95041 | 27067 ft | 411 kts | 80° |
| 2026-05-01 15:18 | 55.98071 | 39.10375 | 27901 ft | 415 kts | 80° |
| 2026-05-01 15:18 | 55.98188 | 39.15585 | 28144 ft | 417 kts | 80° |
| 2026-05-01 15:19 | 55.98539 | 39.31162 | 28822 ft | 423 kts | 79° |
| 2026-05-01 15:19 | 55.98759 | 39.41744 | 29299 ft | 425 kts | 79° |
| 2026-05-01 15:19 | 55.98860 | 39.46930 | 29717 ft | 421 kts | 79° |
| 2026-05-01 15:20 | 55.99064 | 39.57325 | 30346 ft | 418 kts | 79° |
| 2026-05-01 15:20 | 55.99287 | 39.62497 | 30606 ft | 413 kts | 73° |
| 2026-05-01 15:20 | 55.99885 | 39.67518 | 30824 ft | 406 kts | 67° |
| 2026-05-01 15:21 | 56.00894 | 39.72155 | 31077 ft | 399 kts | 58° |
| 2026-05-01 15:21 | 56.02165 | 39.76562 | 31333 ft | 399 kts | 60° |
| 2026-05-01 15:21 | 56.02994 | 39.81373 | 31449 ft | 415 kts | 75° |
| 2026-05-01 15:21 | 56.03125 | 39.86563 | 31759 ft | 422 kts | 83° |
| 2026-05-01 15:22 | 56.03135 | 39.97162 | 32036 ft | 425 kts | 81° |
| 2026-05-01 15:22 | 56.03219 | 40.02446 | 32286 ft | 424 kts | 81° |
| 2026-05-01 15:22 | 56.03294 | 40.07666 | 32462 ft | 426 kts | 82° |
| 2026-05-01 15:23 | 56.03355 | 40.13003 | 32641 ft | 428 kts | 82° |
| 2026-05-01 15:23 | 56.03410 | 40.18335 | 32854 ft | 428 kts | 82° |
| 2026-05-01 15:23 | 56.03464 | 40.23665 | 33043 ft | 429 kts | 82° |
| 2026-05-01 15:23 | 56.03521 | 40.29017 | 33241 ft | 429 kts | 82° |
| 2026-05-01 15:24 | 56.03580 | 40.34365 | 33430 ft | 430 kts | 82° |
| 2026-05-01 15:24 | 56.03637 | 40.39708 | 33613 ft | 431 kts | 82° |
| 2026-05-01 15:24 | 56.03691 | 40.45049 | 33804 ft | 431 kts | 82° |
| 2026-05-01 15:24 | 56.03744 | 40.50402 | 33983 ft | 432 kts | 83° |
| 2026-05-01 15:25 | 56.03795 | 40.55742 | 34166 ft | 432 kts | 83° |
| 2026-05-01 15:25 | 56.03846 | 40.61104 | 34355 ft | 432 kts | 83° |
| 2026-05-01 15:25 | 56.03898 | 40.66523 | 34535 ft | 433 kts | 84° |
| 2026-05-01 15:25 | 56.03947 | 40.71900 | 34687 ft | 434 kts | 84° |
| 2026-05-01 15:26 | 56.03991 | 40.77320 | 34884 ft | 434 kts | 84° |
| 2026-05-01 15:26 | 56.04030 | 40.82680 | 35041 ft | 434 kts | 84° |
| 2026-05-01 15:26 | 56.04062 | 40.88110 | 35154 ft | 436 kts | 84° |
| 2026-05-01 15:26 | 56.04093 | 40.93567 | 35156 ft | 439 kts | 84° |
| 2026-05-01 15:27 | 56.04156 | 41.04454 | 35154 ft | 437 kts | 84° |
| 2026-05-01 15:28 | 56.04232 | 41.20707 | 35155 ft | 437 kts | 85° |
| 2026-05-01 15:28 | 56.04268 | 41.31564 | 35155 ft | 439 kts | 85° |
| 2026-05-01 15:29 | 56.04307 | 41.48004 | 35154 ft | 440 kts | 85° |
| 2026-05-01 15:30 | 56.04324 | 41.68091 | 35155 ft | 441 kts | 86° |
| 2026-05-01 15:31 | 56.04274 | 42.02898 | 35155 ft | 442 kts | 86° |
| 2026-05-01 15:32 | 56.04193 | 42.24891 | 35155 ft | 442 kts | 86° |
| 2026-05-01 15:34 | 56.03989 | 42.57896 | 35155 ft | 442 kts | 86° |